sensor_id;sensor_type;location;lat;lon;timestamp;P1;durP1;ratioP1;P2;durP2;ratioP2
58412;SDS011;44209;52.952;6.790;2024-01-10T00:01:24;30.27;;;20.13;;
58412;SDS011;44209;52.952;6.790;2024-01-10T00:03:52;32.37;;;19.87;;
58412;SDS011;44209;52.952;6.790;2024-01-10T00:06:19;31.30;;;18.97;;
58412;SDS011;44209;52.952;6.790;2024-01-10T00:08:45;31.20;;;18.50;;
58412;SDS011;44209;52.952;6.790;2024-01-10T00:11:11;28.97;;;19.07;;
58412;SDS011;44209;52.952;6.790;2024-01-10T00:13:37;29.93;;;19.87;;
58412;SDS011;44209;52.952;6.790;2024-01-10T00:16:02;28.97;;;18.07;;
58412;SDS011;44209;52.952;6.790;2024-01-10T00:18:28;29.00;;;19.03;;
58412;SDS011;44209;52.952;6.790;2024-01-10T00:20:54;27.10;;;18.33;;
58412;SDS011;44209;52.952;6.790;2024-01-10T00:23:20;27.80;;;18.10;;
58412;SDS011;44209;52.952;6.790;2024-01-10T00:25:47;27.90;;;18.50;;
58412;SDS011;44209;52.952;6.790;2024-01-10T00:28:13;28.40;;;18.60;;
58412;SDS011;44209;52.952;6.790;2024-01-10T00:30:39;29.63;;;18.73;;
58412;SDS011;44209;52.952;6.790;2024-01-10T00:33:05;28.60;;;17.93;;
58412;SDS011;44209;52.952;6.790;2024-01-10T00:35:31;25.33;;;17.57;;
58412;SDS011;44209;52.952;6.790;2024-01-10T00:37:57;28.43;;;18.13;;
58412;SDS011;44209;52.952;6.790;2024-01-10T00:40:23;28.97;;;18.97;;
58412;SDS011;44209;52.952;6.790;2024-01-10T00:42:48;29.07;;;19.07;;
58412;SDS011;44209;52.952;6.790;2024-01-10T00:45:15;27.47;;;18.20;;
58412;SDS011;44209;52.952;6.790;2024-01-10T00:47:41;26.23;;;18.67;;
58412;SDS011;44209;52.952;6.790;2024-01-10T00:50:07;26.73;;;18.00;;
58412;SDS011;44209;52.952;6.790;2024-01-10T00:52:33;27.33;;;18.03;;
58412;SDS011;44209;52.952;6.790;2024-01-10T00:54:59;28.17;;;18.70;;
58412;SDS011;44209;52.952;6.790;2024-01-10T00:57:25;27.17;;;18.13;;
58412;SDS011;44209;52.952;6.790;2024-01-10T00:59:50;24.90;;;17.73;;
58412;SDS011;44209;52.952;6.790;2024-01-10T01:02:16;25.00;;;16.10;;
58412;SDS011;44209;52.952;6.790;2024-01-10T01:04:42;25.27;;;16.67;;
58412;SDS011;44209;52.952;6.790;2024-01-10T01:07:07;25.80;;;17.07;;
58412;SDS011;44209;52.952;6.790;2024-01-10T01:09:33;24.37;;;16.03;;
58412;SDS011;44209;52.952;6.790;2024-01-10T01:11:59;25.07;;;17.03;;
58412;SDS011;44209;52.952;6.790;2024-01-10T01:14:25;27.87;;;16.43;;
58412;SDS011;44209;52.952;6.790;2024-01-10T01:16:50;25.57;;;16.23;;
58412;SDS011;44209;52.952;6.790;2024-01-10T01:19:16;24.40;;;16.83;;
58412;SDS011;44209;52.952;6.790;2024-01-10T01:21:42;24.23;;;15.97;;
58412;SDS011;44209;52.952;6.790;2024-01-10T01:24:08;24.50;;;16.50;;
58412;SDS011;44209;52.952;6.790;2024-01-10T01:26:34;22.47;;;15.67;;
58412;SDS011;44209;52.952;6.790;2024-01-10T01:28:59;24.33;;;15.57;;
58412;SDS011;44209;52.952;6.790;2024-01-10T01:31:25;24.00;;;15.40;;
58412;SDS011;44209;52.952;6.790;2024-01-10T01:33:51;22.27;;;15.63;;
58412;SDS011;44209;52.952;6.790;2024-01-10T01:36:17;23.33;;;15.50;;
58412;SDS011;44209;52.952;6.790;2024-01-10T01:38:42;20.57;;;15.40;;
58412;SDS011;44209;52.952;6.790;2024-01-10T01:41:08;23.17;;;15.03;;
58412;SDS011;44209;52.952;6.790;2024-01-10T01:43:34;24.80;;;14.80;;
58412;SDS011;44209;52.952;6.790;2024-01-10T01:46:00;22.10;;;15.03;;
58412;SDS011;44209;52.952;6.790;2024-01-10T01:48:27;21.03;;;15.00;;
58412;SDS011;44209;52.952;6.790;2024-01-10T01:50:55;22.57;;;14.87;;
58412;SDS011;44209;52.952;6.790;2024-01-10T01:53:23;21.37;;;14.30;;
58412;SDS011;44209;52.952;6.790;2024-01-10T01:55:50;22.23;;;14.80;;
58412;SDS011;44209;52.952;6.790;2024-01-10T01:58:16;23.47;;;15.23;;
58412;SDS011;44209;52.952;6.790;2024-01-10T02:00:42;22.70;;;16.10;;
58412;SDS011;44209;52.952;6.790;2024-01-10T02:03:09;24.30;;;16.00;;
58412;SDS011;44209;52.952;6.790;2024-01-10T02:05:35;23.90;;;15.17;;
58412;SDS011;44209;52.952;6.790;2024-01-10T02:08:01;25.13;;;15.93;;
58412;SDS011;44209;52.952;6.790;2024-01-10T02:10:27;25.10;;;15.80;;
58412;SDS011;44209;52.952;6.790;2024-01-10T02:12:53;26.13;;;17.20;;
58412;SDS011;44209;52.952;6.790;2024-01-10T02:15:19;24.73;;;17.13;;
58412;SDS011;44209;52.952;6.790;2024-01-10T02:17:45;29.10;;;18.40;;
58412;SDS011;44209;52.952;6.790;2024-01-10T02:20:11;30.33;;;18.20;;
58412;SDS011;44209;52.952;6.790;2024-01-10T02:22:37;30.50;;;19.33;;
58412;SDS011;44209;52.952;6.790;2024-01-10T02:25:07;32.37;;;20.77;;
58412;SDS011;44209;52.952;6.790;2024-01-10T02:27:34;31.53;;;19.90;;
58412;SDS011;44209;52.952;6.790;2024-01-10T02:30:02;36.03;;;21.70;;
58412;SDS011;44209;52.952;6.790;2024-01-10T02:32:28;36.43;;;23.00;;
58412;SDS011;44209;52.952;6.790;2024-01-10T02:34:54;36.80;;;22.87;;
58412;SDS011;44209;52.952;6.790;2024-01-10T02:37:20;38.07;;;22.80;;
58412;SDS011;44209;52.952;6.790;2024-01-10T02:39:45;34.77;;;23.30;;
58412;SDS011;44209;52.952;6.790;2024-01-10T02:42:11;39.60;;;24.40;;
58412;SDS011;44209;52.952;6.790;2024-01-10T02:44:37;41.37;;;24.73;;
58412;SDS011;44209;52.952;6.790;2024-01-10T02:47:03;38.93;;;24.63;;
58412;SDS011;44209;52.952;6.790;2024-01-10T02:49:29;37.53;;;24.80;;
58412;SDS011;44209;52.952;6.790;2024-01-10T02:51:55;35.00;;;24.43;;
58412;SDS011;44209;52.952;6.790;2024-01-10T02:54:21;35.23;;;23.80;;
58412;SDS011;44209;52.952;6.790;2024-01-10T02:56:46;42.00;;;25.57;;
58412;SDS011;44209;52.952;6.790;2024-01-10T02:59:12;39.13;;;25.40;;
58412;SDS011;44209;52.952;6.790;2024-01-10T03:01:37;40.97;;;25.67;;
58412;SDS011;44209;52.952;6.790;2024-01-10T03:04:03;39.37;;;24.43;;
58412;SDS011;44209;52.952;6.790;2024-01-10T03:06:29;40.13;;;25.13;;
58412;SDS011;44209;52.952;6.790;2024-01-10T03:08:55;37.80;;;24.50;;
58412;SDS011;44209;52.952;6.790;2024-01-10T03:11:20;40.20;;;25.10;;
58412;SDS011;44209;52.952;6.790;2024-01-10T03:13:47;37.27;;;24.23;;
58412;SDS011;44209;52.952;6.790;2024-01-10T03:16:15;41.63;;;25.20;;
58412;SDS011;44209;52.952;6.790;2024-01-10T03:18:40;38.33;;;24.03;;
58412;SDS011;44209;52.952;6.790;2024-01-10T03:21:06;34.67;;;23.13;;
58412;SDS011;44209;52.952;6.790;2024-01-10T03:23:32;33.83;;;22.53;;
58412;SDS011;44209;52.952;6.790;2024-01-10T03:25:57;37.97;;;23.90;;
58412;SDS011;44209;52.952;6.790;2024-01-10T03:28:23;40.30;;;25.47;;
58412;SDS011;44209;52.952;6.790;2024-01-10T03:30:49;36.80;;;22.80;;
58412;SDS011;44209;52.952;6.790;2024-01-10T03:33:15;37.03;;;23.73;;
58412;SDS011;44209;52.952;6.790;2024-01-10T03:35:43;34.07;;;23.23;;
58412;SDS011;44209;52.952;6.790;2024-01-10T03:38:09;38.53;;;23.00;;
58412;SDS011;44209;52.952;6.790;2024-01-10T03:40:35;34.17;;;22.43;;
58412;SDS011;44209;52.952;6.790;2024-01-10T03:43:00;36.87;;;22.87;;
58412;SDS011;44209;52.952;6.790;2024-01-10T03:45:26;36.87;;;23.30;;
58412;SDS011;44209;52.952;6.790;2024-01-10T03:47:52;35.10;;;22.73;;
58412;SDS011;44209;52.952;6.790;2024-01-10T03:50:18;33.80;;;22.70;;
58412;SDS011;44209;52.952;6.790;2024-01-10T03:52:44;38.53;;;24.33;;
58412;SDS011;44209;52.952;6.790;2024-01-10T03:55:13;37.27;;;23.73;;
58412;SDS011;44209;52.952;6.790;2024-01-10T03:57:40;36.90;;;24.40;;
58412;SDS011;44209;52.952;6.790;2024-01-10T04:00:07;35.00;;;23.70;;
58412;SDS011;44209;52.952;6.790;2024-01-10T04:02:33;36.27;;;23.13;;
58412;SDS011;44209;52.952;6.790;2024-01-10T04:05:01;36.23;;;23.70;;
58412;SDS011;44209;52.952;6.790;2024-01-10T04:07:27;37.03;;;23.60;;
58412;SDS011;44209;52.952;6.790;2024-01-10T04:09:53;40.40;;;24.83;;
58412;SDS011;44209;52.952;6.790;2024-01-10T04:12:19;38.17;;;24.30;;
58412;SDS011;44209;52.952;6.790;2024-01-10T04:14:44;39.30;;;24.20;;
58412;SDS011;44209;52.952;6.790;2024-01-10T04:17:10;38.07;;;24.60;;
58412;SDS011;44209;52.952;6.790;2024-01-10T04:19:36;39.73;;;23.97;;
58412;SDS011;44209;52.952;6.790;2024-01-10T04:22:01;35.47;;;23.67;;
58412;SDS011;44209;52.952;6.790;2024-01-10T04:24:27;36.97;;;24.17;;
58412;SDS011;44209;52.952;6.790;2024-01-10T04:26:53;36.87;;;24.07;;
58412;SDS011;44209;52.952;6.790;2024-01-10T04:29:18;40.13;;;24.63;;
58412;SDS011;44209;52.952;6.790;2024-01-10T04:31:44;37.53;;;24.60;;
58412;SDS011;44209;52.952;6.790;2024-01-10T04:34:10;36.37;;;23.97;;
58412;SDS011;44209;52.952;6.790;2024-01-10T04:36:36;36.63;;;24.53;;
58412;SDS011;44209;52.952;6.790;2024-01-10T04:39:02;39.63;;;24.90;;
58412;SDS011;44209;52.952;6.790;2024-01-10T04:41:27;37.87;;;25.00;;
58412;SDS011;44209;52.952;6.790;2024-01-10T04:43:53;40.50;;;26.00;;
58412;SDS011;44209;52.952;6.790;2024-01-10T04:46:19;39.13;;;24.73;;
58412;SDS011;44209;52.952;6.790;2024-01-10T04:48:44;39.57;;;25.43;;
58412;SDS011;44209;52.952;6.790;2024-01-10T04:51:10;39.57;;;24.77;;
58412;SDS011;44209;52.952;6.790;2024-01-10T04:53:36;38.10;;;25.23;;
58412;SDS011;44209;52.952;6.790;2024-01-10T04:56:01;41.50;;;26.37;;
58412;SDS011;44209;52.952;6.790;2024-01-10T04:58:27;38.87;;;24.63;;
58412;SDS011;44209;52.952;6.790;2024-01-10T05:00:54;39.27;;;24.83;;
58412;SDS011;44209;52.952;6.790;2024-01-10T05:03:20;36.87;;;24.80;;
58412;SDS011;44209;52.952;6.790;2024-01-10T05:05:46;38.53;;;25.97;;
58412;SDS011;44209;52.952;6.790;2024-01-10T05:08:11;40.73;;;25.77;;
58412;SDS011;44209;52.952;6.790;2024-01-10T05:10:37;37.20;;;25.97;;
58412;SDS011;44209;52.952;6.790;2024-01-10T05:13:03;39.93;;;25.20;;
58412;SDS011;44209;52.952;6.790;2024-01-10T05:15:28;40.27;;;25.00;;
58412;SDS011;44209;52.952;6.790;2024-01-10T05:17:54;40.20;;;25.67;;
58412;SDS011;44209;52.952;6.790;2024-01-10T05:20:21;44.27;;;26.30;;
58412;SDS011;44209;52.952;6.790;2024-01-10T05:22:46;38.77;;;24.50;;
58412;SDS011;44209;52.952;6.790;2024-01-10T05:25:12;39.20;;;25.40;;
58412;SDS011;44209;52.952;6.790;2024-01-10T05:27:37;34.37;;;22.73;;
58412;SDS011;44209;52.952;6.790;2024-01-10T05:30:03;40.53;;;25.10;;
58412;SDS011;44209;52.952;6.790;2024-01-10T05:32:29;40.50;;;25.53;;
58412;SDS011;44209;52.952;6.790;2024-01-10T05:34:55;38.43;;;24.60;;
58412;SDS011;44209;52.952;6.790;2024-01-10T05:37:21;37.03;;;24.40;;
58412;SDS011;44209;52.952;6.790;2024-01-10T05:39:47;40.00;;;26.27;;
58412;SDS011;44209;52.952;6.790;2024-01-10T05:42:13;37.97;;;24.13;;
58412;SDS011;44209;52.952;6.790;2024-01-10T05:44:39;38.13;;;24.37;;
58412;SDS011;44209;52.952;6.790;2024-01-10T05:47:05;37.10;;;24.50;;
58412;SDS011;44209;52.952;6.790;2024-01-10T05:49:31;40.80;;;25.37;;
58412;SDS011;44209;52.952;6.790;2024-01-10T05:51:58;38.07;;;24.77;;
58412;SDS011;44209;52.952;6.790;2024-01-10T05:54:23;38.73;;;25.23;;
58412;SDS011;44209;52.952;6.790;2024-01-10T05:56:49;37.73;;;25.03;;
58412;SDS011;44209;52.952;6.790;2024-01-10T05:59:15;37.67;;;24.87;;
58412;SDS011;44209;52.952;6.790;2024-01-10T06:01:42;38.03;;;24.77;;
58412;SDS011;44209;52.952;6.790;2024-01-10T06:04:07;36.27;;;24.20;;
58412;SDS011;44209;52.952;6.790;2024-01-10T06:06:33;38.10;;;24.63;;
58412;SDS011;44209;52.952;6.790;2024-01-10T06:08:59;37.67;;;24.43;;
58412;SDS011;44209;52.952;6.790;2024-01-10T06:11:25;35.77;;;23.87;;
58412;SDS011;44209;52.952;6.790;2024-01-10T06:13:51;36.87;;;24.30;;
58412;SDS011;44209;52.952;6.790;2024-01-10T06:16:16;35.23;;;23.90;;
58412;SDS011;44209;52.952;6.790;2024-01-10T06:18:42;36.87;;;25.30;;
58412;SDS011;44209;52.952;6.790;2024-01-10T06:21:08;35.70;;;24.10;;
58412;SDS011;44209;52.952;6.790;2024-01-10T06:23:34;32.93;;;23.57;;
58412;SDS011;44209;52.952;6.790;2024-01-10T06:25:59;36.43;;;24.70;;
58412;SDS011;44209;52.952;6.790;2024-01-10T06:28:26;34.20;;;23.70;;
58412;SDS011;44209;52.952;6.790;2024-01-10T06:30:52;36.20;;;23.00;;
58412;SDS011;44209;52.952;6.790;2024-01-10T06:33:17;35.10;;;23.87;;
58412;SDS011;44209;52.952;6.790;2024-01-10T06:35:45;33.93;;;22.40;;
58412;SDS011;44209;52.952;6.790;2024-01-10T06:38:11;34.83;;;23.47;;
58412;SDS011;44209;52.952;6.790;2024-01-10T06:40:37;30.67;;;22.17;;
58412;SDS011;44209;52.952;6.790;2024-01-10T06:43:03;35.17;;;23.13;;
58412;SDS011;44209;52.952;6.790;2024-01-10T06:45:29;34.63;;;22.17;;
58412;SDS011;44209;52.952;6.790;2024-01-10T06:47:55;32.50;;;22.70;;
58412;SDS011;44209;52.952;6.790;2024-01-10T06:50:20;35.43;;;23.77;;
58412;SDS011;44209;52.952;6.790;2024-01-10T06:52:46;34.63;;;23.83;;
58412;SDS011;44209;52.952;6.790;2024-01-10T06:55:13;34.17;;;23.53;;
58412;SDS011;44209;52.952;6.790;2024-01-10T06:57:39;37.10;;;24.60;;
58412;SDS011;44209;52.952;6.790;2024-01-10T07:00:05;33.57;;;23.10;;
58412;SDS011;44209;52.952;6.790;2024-01-10T07:02:36;35.92;;;23.13;;
58412;SDS011;44209;52.952;6.790;2024-01-10T07:05:02;34.40;;;23.93;;
58412;SDS011;44209;52.952;6.790;2024-01-10T07:07:32;35.20;;;23.20;;
58412;SDS011;44209;52.952;6.790;2024-01-10T07:10:00;32.33;;;21.80;;
58412;SDS011;44209;52.952;6.790;2024-01-10T07:12:26;32.17;;;21.33;;
58412;SDS011;44209;52.952;6.790;2024-01-10T07:14:52;34.10;;;22.70;;
58412;SDS011;44209;52.952;6.790;2024-01-10T07:17:18;32.87;;;22.87;;
58412;SDS011;44209;52.952;6.790;2024-01-10T07:19:43;29.80;;;21.97;;
58412;SDS011;44209;52.952;6.790;2024-01-10T07:22:11;32.33;;;22.07;;
58412;SDS011;44209;52.952;6.790;2024-01-10T07:24:36;34.63;;;22.30;;
58412;SDS011;44209;52.952;6.790;2024-01-10T07:27:02;32.60;;;22.13;;
58412;SDS011;44209;52.952;6.790;2024-01-10T07:29:28;33.27;;;22.63;;
58412;SDS011;44209;52.952;6.790;2024-01-10T07:31:53;32.43;;;21.30;;
58412;SDS011;44209;52.952;6.790;2024-01-10T07:34:19;31.73;;;22.37;;
58412;SDS011;44209;52.952;6.790;2024-01-10T07:36:46;31.60;;;22.47;;
58412;SDS011;44209;52.952;6.790;2024-01-10T07:39:12;35.53;;;23.37;;
58412;SDS011;44209;52.952;6.790;2024-01-10T07:41:41;35.30;;;23.40;;
58412;SDS011;44209;52.952;6.790;2024-01-10T07:44:07;35.87;;;22.77;;
58412;SDS011;44209;52.952;6.790;2024-01-10T07:46:34;33.77;;;22.97;;
58412;SDS011;44209;52.952;6.790;2024-01-10T07:49:02;31.60;;;22.60;;
58412;SDS011;44209;52.952;6.790;2024-01-10T07:51:30;37.03;;;22.70;;
58412;SDS011;44209;52.952;6.790;2024-01-10T07:53:57;34.93;;;23.00;;
58412;SDS011;44209;52.952;6.790;2024-01-10T07:56:24;32.77;;;22.60;;
58412;SDS011;44209;52.952;6.790;2024-01-10T07:58:50;36.77;;;23.30;;
58412;SDS011;44209;52.952;6.790;2024-01-10T08:01:17;36.83;;;23.63;;
58412;SDS011;44209;52.952;6.790;2024-01-10T08:03:43;37.23;;;23.67;;
58412;SDS011;44209;52.952;6.790;2024-01-10T08:06:08;35.43;;;23.03;;
58412;SDS011;44209;52.952;6.790;2024-01-10T08:08:36;37.07;;;23.77;;
58412;SDS011;44209;52.952;6.790;2024-01-10T08:11:02;35.33;;;23.60;;
58412;SDS011;44209;52.952;6.790;2024-01-10T08:13:28;36.60;;;23.27;;
58412;SDS011;44209;52.952;6.790;2024-01-10T08:15:54;39.23;;;24.30;;
58412;SDS011;44209;52.952;6.790;2024-01-10T08:18:20;36.97;;;23.00;;
58412;SDS011;44209;52.952;6.790;2024-01-10T08:20:45;36.17;;;23.03;;
58412;SDS011;44209;52.952;6.790;2024-01-10T08:23:11;36.57;;;22.43;;
58412;SDS011;44209;52.952;6.790;2024-01-10T08:25:37;34.60;;;22.93;;
58412;SDS011;44209;52.952;6.790;2024-01-10T08:28:03;38.80;;;23.00;;
58412;SDS011;44209;52.952;6.790;2024-01-10T08:30:29;34.63;;;22.03;;
58412;SDS011;44209;52.952;6.790;2024-01-10T08:32:54;37.53;;;22.00;;
58412;SDS011;44209;52.952;6.790;2024-01-10T08:35:20;35.23;;;21.60;;
58412;SDS011;44209;52.952;6.790;2024-01-10T08:37:46;35.33;;;22.50;;
58412;SDS011;44209;52.952;6.790;2024-01-10T08:40:12;34.57;;;21.20;;
58412;SDS011;44209;52.952;6.790;2024-01-10T08:42:43;39.40;;;21.47;;
58412;SDS011;44209;52.952;6.790;2024-01-10T08:45:09;35.37;;;21.60;;
58412;SDS011;44209;52.952;6.790;2024-01-10T08:47:36;33.80;;;20.37;;
58412;SDS011;44209;52.952;6.790;2024-01-10T08:50:05;36.13;;;20.57;;
58412;SDS011;44209;52.952;6.790;2024-01-10T08:52:34;37.28;;;20.55;;
58412;SDS011;44209;52.952;6.790;2024-01-10T08:55:02;37.83;;;20.70;;
58412;SDS011;44209;52.952;6.790;2024-01-10T08:57:30;36.30;;;20.47;;
58412;SDS011;44209;52.952;6.790;2024-01-10T08:59:55;34.80;;;21.30;;
58412;SDS011;44209;52.952;6.790;2024-01-10T09:02:21;36.47;;;20.70;;
58412;SDS011;44209;52.952;6.790;2024-01-10T09:04:48;37.57;;;22.27;;
58412;SDS011;44209;52.952;6.790;2024-01-10T09:07:15;37.83;;;22.03;;
58412;SDS011;44209;52.952;6.790;2024-01-10T09:09:42;37.97;;;21.23;;
58412;SDS011;44209;52.952;6.790;2024-01-10T09:12:08;37.83;;;21.43;;
58412;SDS011;44209;52.952;6.790;2024-01-10T09:14:34;39.27;;;22.37;;
58412;SDS011;44209;52.952;6.790;2024-01-10T09:17:00;37.37;;;20.60;;
58412;SDS011;44209;52.952;6.790;2024-01-10T09:19:28;36.57;;;21.97;;
58412;SDS011;44209;52.952;6.790;2024-01-10T09:21:55;36.23;;;21.50;;
58412;SDS011;44209;52.952;6.790;2024-01-10T09:24:22;36.23;;;21.37;;
58412;SDS011;44209;52.952;6.790;2024-01-10T09:26:51;37.40;;;20.07;;
58412;SDS011;44209;52.952;6.790;2024-01-10T09:29:17;38.63;;;20.47;;
58412;SDS011;44209;52.952;6.790;2024-01-10T09:31:42;36.87;;;20.37;;
58412;SDS011;44209;52.952;6.790;2024-01-10T09:34:08;39.20;;;20.37;;
58412;SDS011;44209;52.952;6.790;2024-01-10T09:36:34;38.13;;;21.53;;
58412;SDS011;44209;52.952;6.790;2024-01-10T09:39:00;35.43;;;19.03;;
58412;SDS011;44209;52.952;6.790;2024-01-10T09:41:30;32.60;;;18.73;;
58412;SDS011;44209;52.952;6.790;2024-01-10T09:44:00;34.80;;;19.20;;
58412;SDS011;44209;52.952;6.790;2024-01-10T09:46:26;36.80;;;18.73;;
58412;SDS011;44209;52.952;6.790;2024-01-10T09:48:55;33.53;;;18.40;;
58412;SDS011;44209;52.952;6.790;2024-01-10T09:51:21;29.90;;;17.83;;
58412;SDS011;44209;52.952;6.790;2024-01-10T09:53:48;34.20;;;17.73;;
58412;SDS011;44209;52.952;6.790;2024-01-10T09:56:15;29.30;;;18.20;;
58412;SDS011;44209;52.952;6.790;2024-01-10T09:58:43;32.80;;;18.23;;
58412;SDS011;44209;52.952;6.790;2024-01-10T10:01:11;30.43;;;17.13;;
58412;SDS011;44209;52.952;6.790;2024-01-10T10:03:37;31.23;;;17.67;;
58412;SDS011;44209;52.952;6.790;2024-01-10T10:06:07;35.43;;;17.67;;
58412;SDS011;44209;52.952;6.790;2024-01-10T10:08:33;33.20;;;17.50;;
58412;SDS011;44209;52.952;6.790;2024-01-10T10:10:58;32.77;;;17.60;;
58412;SDS011;44209;52.952;6.790;2024-01-10T10:13:25;30.73;;;16.90;;
58412;SDS011;44209;52.952;6.790;2024-01-10T10:16:03;31.43;;;16.57;;
58412;SDS011;44209;52.952;6.790;2024-01-10T10:18:30;29.27;;;16.37;;
58412;SDS011;44209;52.952;6.790;2024-01-10T10:23:36;31.50;;;16.57;;
58412;SDS011;44209;52.952;6.790;2024-01-10T10:26:10;31.43;;;15.97;;
58412;SDS011;44209;52.952;6.790;2024-01-10T10:28:45;30.90;;;16.13;;
58412;SDS011;44209;52.952;6.790;2024-01-10T10:31:11;32.50;;;17.10;;
58412;SDS011;44209;52.952;6.790;2024-01-10T10:33:38;30.73;;;17.07;;
58412;SDS011;44209;52.952;6.790;2024-01-10T10:36:04;27.63;;;15.27;;
58412;SDS011;44209;52.952;6.790;2024-01-10T10:38:31;28.93;;;16.20;;
58412;SDS011;44209;52.952;6.790;2024-01-10T10:40:58;30.27;;;15.50;;
58412;SDS011;44209;52.952;6.790;2024-01-10T10:43:25;29.83;;;15.60;;
58412;SDS011;44209;52.952;6.790;2024-01-10T10:45:51;29.57;;;14.67;;
58412;SDS011;44209;52.952;6.790;2024-01-10T10:48:17;28.60;;;15.50;;
58412;SDS011;44209;52.952;6.790;2024-01-10T10:51:08;30.20;;;15.57;;
58412;SDS011;44209;52.952;6.790;2024-01-10T10:53:54;30.23;;;15.17;;
58412;SDS011;44209;52.952;6.790;2024-01-10T10:56:21;28.40;;;15.70;;
58412;SDS011;44209;52.952;6.790;2024-01-10T10:58:48;30.87;;;14.70;;
58412;SDS011;44209;52.952;6.790;2024-01-10T11:01:15;28.80;;;15.87;;
58412;SDS011;44209;52.952;6.790;2024-01-10T11:03:42;27.50;;;15.53;;
58412;SDS011;44209;52.952;6.790;2024-01-10T11:06:09;28.13;;;15.60;;
58412;SDS011;44209;52.952;6.790;2024-01-10T11:08:40;29.37;;;15.33;;
58412;SDS011;44209;52.952;6.790;2024-01-10T11:24:59;26.70;;;14.43;;
58412;SDS011;44209;52.952;6.790;2024-01-10T11:27:25;25.90;;;14.80;;
58412;SDS011;44209;52.952;6.790;2024-01-10T11:29:52;25.93;;;13.33;;
58412;SDS011;44209;52.952;6.790;2024-01-10T11:32:18;26.20;;;14.50;;
58412;SDS011;44209;52.952;6.790;2024-01-10T11:34:55;26.08;;;13.82;;
58412;SDS011;44209;52.952;6.790;2024-01-10T11:37:24;25.80;;;13.87;;
58412;SDS011;44209;52.952;6.790;2024-01-10T11:40:09;22.17;;;12.80;;
58412;SDS011;44209;52.952;6.790;2024-01-10T11:42:43;24.37;;;13.20;;
58412;SDS011;44209;52.952;6.790;2024-01-10T11:47:59;25.57;;;13.83;;
58412;SDS011;44209;52.952;6.790;2024-01-10T11:50:25;22.20;;;13.43;;
58412;SDS011;44209;52.952;6.790;2024-01-10T11:52:54;23.97;;;13.53;;
58412;SDS011;44209;52.952;6.790;2024-01-10T11:58:17;22.80;;;13.20;;
58412;SDS011;44209;52.952;6.790;2024-01-10T12:00:43;23.00;;;11.93;;
58412;SDS011;44209;52.952;6.790;2024-01-10T12:03:10;25.37;;;14.33;;
58412;SDS011;44209;52.952;6.790;2024-01-10T12:05:37;22.03;;;13.13;;
58412;SDS011;44209;52.952;6.790;2024-01-10T12:08:07;22.47;;;13.77;;
58412;SDS011;44209;52.952;6.790;2024-01-10T12:10:33;21.67;;;12.97;;
58412;SDS011;44209;52.952;6.790;2024-01-10T12:13:02;21.40;;;12.73;;
58412;SDS011;44209;52.952;6.790;2024-01-10T12:15:28;22.63;;;12.83;;
58412;SDS011;44209;52.952;6.790;2024-01-10T12:17:54;21.13;;;12.70;;
58412;SDS011;44209;52.952;6.790;2024-01-10T12:20:21;21.27;;;12.50;;
58412;SDS011;44209;52.952;6.790;2024-01-10T12:22:46;21.63;;;11.53;;
58412;SDS011;44209;52.952;6.790;2024-01-10T12:25:12;23.77;;;12.80;;
58412;SDS011;44209;52.952;6.790;2024-01-10T12:27:39;23.27;;;12.77;;
58412;SDS011;44209;52.952;6.790;2024-01-10T12:30:05;22.17;;;11.80;;
58412;SDS011;44209;52.952;6.790;2024-01-10T12:32:32;23.00;;;12.17;;
58412;SDS011;44209;52.952;6.790;2024-01-10T12:35:01;22.27;;;12.57;;
58412;SDS011;44209;52.952;6.790;2024-01-10T12:37:28;22.30;;;12.63;;
58412;SDS011;44209;52.952;6.790;2024-01-10T12:39:54;19.93;;;12.00;;
58412;SDS011;44209;52.952;6.790;2024-01-10T12:42:21;20.30;;;12.03;;
58412;SDS011;44209;52.952;6.790;2024-01-10T12:44:47;18.80;;;11.43;;
58412;SDS011;44209;52.952;6.790;2024-01-10T12:47:19;19.87;;;11.63;;
58412;SDS011;44209;52.952;6.790;2024-01-10T12:49:46;20.67;;;11.70;;
58412;SDS011;44209;52.952;6.790;2024-01-10T12:52:12;20.27;;;11.93;;
58412;SDS011;44209;52.952;6.790;2024-01-10T12:54:39;20.43;;;12.67;;
58412;SDS011;44209;52.952;6.790;2024-01-10T12:57:04;22.87;;;11.73;;
58412;SDS011;44209;52.952;6.790;2024-01-10T12:59:32;21.20;;;11.67;;
58412;SDS011;44209;52.952;6.790;2024-01-10T13:01:58;19.03;;;11.73;;
58412;SDS011;44209;52.952;6.790;2024-01-10T13:04:24;20.80;;;12.20;;
58412;SDS011;44209;52.952;6.790;2024-01-10T13:06:50;20.17;;;12.00;;
58412;SDS011;44209;52.952;6.790;2024-01-10T13:09:15;21.30;;;11.10;;
58412;SDS011;44209;52.952;6.790;2024-01-10T13:11:41;19.13;;;11.33;;
58412;SDS011;44209;52.952;6.790;2024-01-10T13:14:07;19.70;;;11.00;;
58412;SDS011;44209;52.952;6.790;2024-01-10T13:16:34;19.90;;;12.07;;
58412;SDS011;44209;52.952;6.790;2024-01-10T13:19:00;18.67;;;11.43;;
58412;SDS011;44209;52.952;6.790;2024-01-10T13:21:26;20.50;;;10.93;;
58412;SDS011;44209;52.952;6.790;2024-01-10T13:23:53;17.63;;;10.80;;
58412;SDS011;44209;52.952;6.790;2024-01-10T13:26:18;16.10;;;10.87;;
58412;SDS011;44209;52.952;6.790;2024-01-10T13:28:44;20.50;;;11.27;;
58412;SDS011;44209;52.952;6.790;2024-01-10T13:31:10;21.20;;;11.00;;
58412;SDS011;44209;52.952;6.790;2024-01-10T13:33:36;20.13;;;12.27;;
58412;SDS011;44209;52.952;6.790;2024-01-10T13:36:03;18.10;;;11.47;;
58412;SDS011;44209;52.952;6.790;2024-01-10T13:38:29;18.70;;;12.07;;
58412;SDS011;44209;52.952;6.790;2024-01-10T13:40:55;20.47;;;12.07;;
58412;SDS011;44209;52.952;6.790;2024-01-10T13:43:21;19.57;;;10.63;;
58412;SDS011;44209;52.952;6.790;2024-01-10T13:45:47;18.13;;;11.30;;
58412;SDS011;44209;52.952;6.790;2024-01-10T13:48:13;18.03;;;11.40;;
58412;SDS011;44209;52.952;6.790;2024-01-10T13:50:39;18.03;;;10.63;;
58412;SDS011;44209;52.952;6.790;2024-01-10T13:53:04;20.63;;;11.60;;
58412;SDS011;44209;52.952;6.790;2024-01-10T13:55:30;18.00;;;10.80;;
58412;SDS011;44209;52.952;6.790;2024-01-10T13:57:57;18.83;;;11.97;;
58412;SDS011;44209;52.952;6.790;2024-01-10T14:00:22;19.43;;;12.00;;
58412;SDS011;44209;52.952;6.790;2024-01-10T14:02:48;20.30;;;11.53;;
58412;SDS011;44209;52.952;6.790;2024-01-10T14:05:14;19.83;;;12.07;;
58412;SDS011;44209;52.952;6.790;2024-01-10T14:07:40;21.57;;;11.87;;
58412;SDS011;44209;52.952;6.790;2024-01-10T14:10:09;20.70;;;12.50;;
58412;SDS011;44209;52.952;6.790;2024-01-10T14:12:38;21.10;;;11.93;;
58412;SDS011;44209;52.952;6.790;2024-01-10T14:15:04;20.53;;;12.10;;
58412;SDS011;44209;52.952;6.790;2024-01-10T14:17:30;21.87;;;12.53;;
58412;SDS011;44209;52.952;6.790;2024-01-10T14:19:56;21.17;;;12.47;;
58412;SDS011;44209;52.952;6.790;2024-01-10T14:22:22;20.47;;;11.83;;
58412;SDS011;44209;52.952;6.790;2024-01-10T14:24:49;19.80;;;11.20;;
58412;SDS011;44209;52.952;6.790;2024-01-10T14:27:16;19.23;;;11.77;;
58412;SDS011;44209;52.952;6.790;2024-01-10T14:29:41;18.00;;;11.77;;
58412;SDS011;44209;52.952;6.790;2024-01-10T14:32:07;21.10;;;12.67;;
58412;SDS011;44209;52.952;6.790;2024-01-10T14:34:33;23.63;;;13.23;;
58412;SDS011;44209;52.952;6.790;2024-01-10T14:36:59;22.90;;;13.67;;
58412;SDS011;44209;52.952;6.790;2024-01-10T14:39:24;24.03;;;13.60;;